createdAt,value
2018-01-06T00:01:03.855Z,40.60
2018-01-06T00:03:31.411Z,43.20
2018-01-06T00:05:58.991Z,46.63
2018-01-06T00:08:27.328Z,44.43
2018-01-06T00:10:54.884Z,41.83
2018-01-06T00:13:22.797Z,41.53
2018-01-06T00:15:51.108Z,42.23
2018-01-06T00:18:18.673Z,39.00
2018-01-06T00:20:46.264Z,43.07
2018-01-06T00:23:13.798Z,44.23
2018-01-06T00:25:41.388Z,44.33
2018-01-06T00:28:08.935Z,51.60
2018-01-06T00:30:36.561Z,49.20
2018-01-06T00:33:04.140Z,47.93
2018-01-06T00:35:31.674Z,48.90
2018-01-06T00:37:59.239Z,50.50
2018-01-06T00:40:26.769Z,57.23
2018-01-06T00:42:54.473Z,55.17
2018-01-06T00:45:22.875Z,60.10
2018-01-06T00:47:50.445Z,51.23
2018-01-06T00:50:18.019Z,46.57
2018-01-06T00:52:45.577Z,42.37
2018-01-06T00:55:13.108Z,52.23
2018-01-06T00:57:40.668Z,47.40
2018-01-06T01:00:08.295Z,44.60
2018-01-06T01:02:35.854Z,45.47
2018-01-06T01:05:04.044Z,49.90
2018-01-06T01:07:31.596Z,42.50
2018-01-06T01:09:59.179Z,54.27
2018-01-06T01:12:26.797Z,49.40
2018-01-06T01:14:54.365Z,47.67
2018-01-06T01:17:22.659Z,50.50
2018-01-06T01:19:50.273Z,51.37
2018-01-06T01:22:17.820Z,47.83
2018-01-06T01:24:45.387Z,48.97
2018-01-06T01:27:12.926Z,47.93
2018-01-06T01:29:40.485Z,51.93
2018-01-06T01:32:08.099Z,42.13
2018-01-06T01:34:35.654Z,48.83
2018-01-06T01:37:03.204Z,42.60
2018-01-06T01:39:31.548Z,47.47
2018-01-06T01:41:59.102Z,43.50
2018-01-06T01:44:26.643Z,44.63
2018-01-06T01:46:54.200Z,44.93
2018-01-06T01:49:22.713Z,43.23
2018-01-06T01:51:50.240Z,47.40
2018-01-06T01:54:17.817Z,42.10
2018-01-06T01:56:45.404Z,47.00
2018-01-06T01:59:12.928Z,49.80
2018-01-06T02:01:40.520Z,53.13
2018-01-06T02:04:08.279Z,52.60
2018-01-06T02:06:35.875Z,46.70
2018-01-06T02:09:04.193Z,47.17
2018-01-06T02:11:31.743Z,46.07
2018-01-06T02:13:59.353Z,41.30
2018-01-06T02:16:27.659Z,50.37
2018-01-06T02:18:55.290Z,48.77
2018-01-06T02:21:23.519Z,48.43
2018-01-06T02:23:51.135Z,43.10
2018-01-06T02:26:18.673Z,50.03
2018-01-06T02:28:46.699Z,48.07
2018-01-06T02:31:14.905Z,40.70
2018-01-06T02:33:42.457Z,44.67
2018-01-06T02:36:10.073Z,36.47
2018-01-06T02:38:37.605Z,40.30
2018-01-06T02:41:05.128Z,37.50
2018-01-06T02:43:32.698Z,37.00
2018-01-06T02:46:00.243Z,35.67
2018-01-06T02:48:27.822Z,40.80
2018-01-06T02:50:55.366Z,44.60
2018-01-06T02:53:22.928Z,37.37
2018-01-06T02:55:50.446Z,44.37
2018-01-06T02:58:18.003Z,46.10
2018-01-06T03:00:46.377Z,38.77
2018-01-06T03:03:13.965Z,38.20
2018-01-06T03:05:41.570Z,35.80
2018-01-06T03:08:09.168Z,43.07
2018-01-06T03:10:37.517Z,34.53
2018-01-06T03:13:05.999Z,40.77
2018-01-06T03:15:33.538Z,42.00
2018-01-06T03:18:01.120Z,45.70
2018-01-06T03:20:28.640Z,40.40
2018-01-06T03:22:56.837Z,38.47
2018-01-06T03:25:24.361Z,36.37
2018-01-06T03:27:51.975Z,35.63
2018-01-06T03:30:19.781Z,37.63
2018-01-06T03:32:47.313Z,33.80
2018-01-06T03:35:14.923Z,34.30
2018-01-06T03:37:42.511Z,34.90
2018-01-06T03:40:10.038Z,37.07
2018-01-06T03:42:37.607Z,33.37
2018-01-06T03:45:05.848Z,31.10
2018-01-06T03:47:34.153Z,26.90
2018-01-06T03:50:02.469Z,25.90
2018-01-06T03:52:30.318Z,27.63
2018-01-06T03:54:57.878Z,26.23
2018-01-06T03:57:25.446Z,31.67
2018-01-06T03:59:52.981Z,26.87
2018-01-06T04:02:21.527Z,35.47
2018-01-06T04:04:49.153Z,29.70
2018-01-06T04:07:17.469Z,29.73
2018-01-06T04:09:45.044Z,29.17
2018-01-06T04:12:12.597Z,31.97
2018-01-06T04:14:40.155Z,28.03
2018-01-06T04:17:07.791Z,33.73
2018-01-06T04:19:35.315Z,33.80
2018-01-06T04:22:02.921Z,31.20
2018-01-06T04:24:30.482Z,30.40
2018-01-06T04:26:58.074Z,28.83
2018-01-06T04:29:25.599Z,32.30
2018-01-06T04:31:54.207Z,31.40
2018-01-06T04:34:22.615Z,30.57
2018-01-06T04:36:50.170Z,30.03
2018-01-06T04:39:18.518Z,28.80
2018-01-06T04:41:46.102Z,33.17
2018-01-06T04:44:13.727Z,34.20
2018-01-06T04:46:42.051Z,27.00
2018-01-06T04:49:09.639Z,33.87
2018-01-06T04:51:37.221Z,35.40
2018-01-06T04:54:05.558Z,29.97
2018-01-06T04:56:33.120Z,34.23
2018-01-06T04:59:00.701Z,34.50
2018-01-06T05:01:28.270Z,31.23
2018-01-06T05:03:55.805Z,31.90
2018-01-06T05:06:23.336Z,32.53
2018-01-06T05:08:51.024Z,30.30
2018-01-06T05:11:18.549Z,35.07
2018-01-06T05:13:46.147Z,32.30
2018-01-06T05:16:14.450Z,30.50
2018-01-06T05:18:41.994Z,35.23
2018-01-06T05:21:09.607Z,30.97
2018-01-06T05:23:37.169Z,29.73
2018-01-06T05:26:04.707Z,29.53
2018-01-06T05:28:33.059Z,29.77
2018-01-06T05:31:00.612Z,28.47
2018-01-06T05:33:28.158Z,28.53
2018-01-06T05:35:56.490Z,32.30
2018-01-06T05:38:24.032Z,35.93
2018-01-06T05:40:52.410Z,32.10
2018-01-06T05:43:19.998Z,33.10
2018-01-06T05:45:48.349Z,28.37
2018-01-06T05:48:15.938Z,28.80
2018-01-06T05:50:43.486Z,30.73
2018-01-06T05:53:11.062Z,28.37
2018-01-06T05:55:38.633Z,31.40
2018-01-06T05:58:06.217Z,30.83
2018-01-06T06:00:33.740Z,39.70
2018-01-06T06:03:01.361Z,32.83
2018-01-06T06:05:29.699Z,32.07
2018-01-06T06:07:57.292Z,34.30
2018-01-06T06:10:24.862Z,32.13
2018-01-06T06:12:53.038Z,36.33
2018-01-06T06:15:22.008Z,37.20
2018-01-06T06:17:49.724Z,35.13
2018-01-06T06:20:17.271Z,40.83
2018-01-06T06:22:44.842Z,39.70
2018-01-06T06:25:13.264Z,43.83
2018-01-06T06:27:40.832Z,44.87
2018-01-06T06:30:08.564Z,48.37
2018-01-06T06:32:36.137Z,52.83
2018-01-06T06:35:04.975Z,44.87
2018-01-06T06:37:32.609Z,42.43
2018-01-06T06:40:00.172Z,45.60
2018-01-06T06:42:28.491Z,40.80
2018-01-06T06:44:56.029Z,40.50
2018-01-06T06:47:23.692Z,44.87
2018-01-06T06:49:51.248Z,44.57
2018-01-06T06:52:19.630Z,40.30
2018-01-06T06:54:47.184Z,38.60
2018-01-06T06:57:14.815Z,40.20
2018-01-06T06:59:43.199Z,33.57
2018-01-06T07:02:10.792Z,33.07
2018-01-06T07:04:38.344Z,33.17
2018-01-06T07:07:06.347Z,39.33
2018-01-06T07:09:33.944Z,32.67
2018-01-06T07:12:01.515Z,44.20
2018-01-06T07:14:29.692Z,33.40
2018-01-06T07:16:57.340Z,41.60
2018-01-06T07:19:24.908Z,38.07
2018-01-06T07:21:52.494Z,39.43
2018-01-06T07:24:20.304Z,42.33
2018-01-06T07:26:47.913Z,40.40
2018-01-06T07:29:15.472Z,43.70
2018-01-06T07:31:55.936Z,44.67
2018-01-06T07:34:23.673Z,43.70
2018-01-06T07:36:51.259Z,44.00
2018-01-06T07:39:18.812Z,37.40
2018-01-06T07:41:46.394Z,43.40
2018-01-06T07:44:14.726Z,39.57
2018-01-06T07:46:42.328Z,43.93
2018-01-06T07:49:10.640Z,43.37
2018-01-06T07:51:38.172Z,49.70
2018-01-06T07:54:05.762Z,44.43
2018-01-06T07:56:33.414Z,45.90
2018-01-06T07:59:00.947Z,49.03
2018-01-06T08:01:28.497Z,46.20
2018-01-06T08:03:56.091Z,52.77
2018-01-06T08:06:23.625Z,54.77
2018-01-06T08:08:51.206Z,45.83
2018-01-06T08:11:18.763Z,48.07
2018-01-06T08:13:47.202Z,47.47
2018-01-06T08:16:14.757Z,47.53
2018-01-06T08:18:42.342Z,51.80
2018-01-06T08:21:09.960Z,41.27
2018-01-06T08:23:37.489Z,44.67
2018-01-06T08:26:05.058Z,41.33
2018-01-06T08:28:32.634Z,37.20
2018-01-06T08:31:00.217Z,36.80
2018-01-06T08:33:27.853Z,44.33
2018-01-06T08:35:55.416Z,37.77
2018-01-06T08:38:22.991Z,38.00
2018-01-06T08:40:50.576Z,35.23
2018-01-06T08:43:18.149Z,34.07
2018-01-06T08:45:46.490Z,36.40
2018-01-06T08:48:14.051Z,39.63
2018-01-06T08:50:41.625Z,39.60
2018-01-06T08:53:09.189Z,42.57
2018-01-06T08:55:36.764Z,39.10
2018-01-06T08:58:04.341Z,40.03
2018-01-06T09:00:31.884Z,41.63
2018-01-06T09:02:59.400Z,44.23
2018-01-06T09:05:26.985Z,42.03
2018-01-06T09:07:54.566Z,41.63
2018-01-06T09:10:23.001Z,40.07
2018-01-06T09:12:50.574Z,42.60
2018-01-06T09:15:18.181Z,43.87
2018-01-06T09:17:45.723Z,47.60
2018-01-06T09:20:13.755Z,49.83
2018-01-06T09:22:42.023Z,39.00
2018-01-06T09:25:09.598Z,44.20
2018-01-06T09:27:37.171Z,47.30
2018-01-06T09:30:04.815Z,44.63
2018-01-06T09:32:32.378Z,43.10
2018-01-06T09:35:00.873Z,44.67
2018-01-06T09:37:28.432Z,40.30
2018-01-06T09:39:56.939Z,40.40
2018-01-06T09:42:25.772Z,40.20
2018-01-06T09:44:53.903Z,44.40
2018-01-06T09:47:23.192Z,44.10
2018-01-06T09:49:50.741Z,35.93
2018-01-06T09:52:18.296Z,41.73
2018-01-06T09:54:45.941Z,40.30
2018-01-06T09:57:14.507Z,34.07
2018-01-06T09:59:42.025Z,39.33
2018-01-06T10:02:09.575Z,38.70
2018-01-06T10:04:37.159Z,38.57
2018-01-06T10:07:04.765Z,43.30
2018-01-06T10:09:32.324Z,40.43
2018-01-06T10:12:00.653Z,39.57
2018-01-06T10:14:29.005Z,37.00
2018-01-06T10:16:56.718Z,42.30
2018-01-06T10:19:24.320Z,41.90
2018-01-06T10:21:52.004Z,37.40
2018-01-06T10:24:19.537Z,34.27
2018-01-06T10:26:47.151Z,29.37
2018-01-06T10:29:14.725Z,30.30
2018-01-06T10:31:42.303Z,30.87
2018-01-06T10:34:09.976Z,35.03
2018-01-06T10:36:37.543Z,31.83
2018-01-06T10:39:05.126Z,27.83
2018-01-06T10:41:32.663Z,27.40
2018-01-06T10:44:00.276Z,27.77
2018-01-06T10:46:27.855Z,29.03
2018-01-06T10:48:55.519Z,29.50
2018-01-06T10:51:23.056Z,28.70
2018-01-06T10:53:50.647Z,30.73
2018-01-06T10:56:18.195Z,30.93
2018-01-06T10:58:46.480Z,27.87
2018-01-06T11:01:20.459Z,31.97
2018-01-06T11:03:47.998Z,39.27
2018-01-06T11:06:15.576Z,30.80
2018-01-06T11:08:43.882Z,30.23
2018-01-06T11:11:11.424Z,29.03
2018-01-06T11:13:38.996Z,29.73
2018-01-06T11:16:06.588Z,34.37
2018-01-06T11:18:34.147Z,31.47
2018-01-06T11:21:01.686Z,30.77
2018-01-06T11:23:29.270Z,30.90
2018-01-06T11:25:57.095Z,33.47
2018-01-06T11:28:24.700Z,31.93
2018-01-06T11:30:52.751Z,30.53
2018-01-06T11:33:20.371Z,29.27
2018-01-06T11:35:47.952Z,29.80
2018-01-06T11:38:15.485Z,34.20
2018-01-06T11:40:43.054Z,38.97
2018-01-06T11:43:10.664Z,35.07
2018-01-06T11:45:38.267Z,37.23
2018-01-06T11:48:06.644Z,43.60
2018-01-06T11:50:34.180Z,39.93
2018-01-06T11:53:01.796Z,42.93
2018-01-06T11:55:29.377Z,48.67
2018-01-06T11:57:56.974Z,42.07
2018-01-06T12:00:24.513Z,46.10
2018-01-06T12:02:52.164Z,42.60
2018-01-06T12:05:20.333Z,44.23
2018-01-06T12:07:49.602Z,45.23
2018-01-06T12:10:18.776Z,45.20
2018-01-06T12:12:49.453Z,48.20
2018-01-06T12:15:18.308Z,57.20
2018-01-06T12:17:46.223Z,54.13
2018-01-06T12:20:14.231Z,45.93
2018-01-06T12:22:43.415Z,45.30
2018-01-06T12:25:11.560Z,46.53
2018-01-06T12:27:39.975Z,47.07
2018-01-06T12:30:09.768Z,44.40
2018-01-06T12:32:38.085Z,46.80
2018-01-06T12:35:07.415Z,49.47
2018-01-06T12:37:36.834Z,50.67
2018-01-06T12:40:05.559Z,46.37
2018-01-06T12:42:33.944Z,46.43
2018-01-06T12:45:05.338Z,45.97
2018-01-06T12:47:33.372Z,44.17
2018-01-06T12:50:01.556Z,52.80
2018-01-06T12:52:29.719Z,51.37
2018-01-06T12:54:58.566Z,55.50
2018-01-06T12:57:26.166Z,59.90
2018-01-06T12:59:54.328Z,56.83
2018-01-06T13:02:21.933Z,63.37
2018-01-06T13:04:49.527Z,59.30
2018-01-06T13:07:17.098Z,62.13
2018-01-06T13:09:44.765Z,56.20
2018-01-06T13:12:12.341Z,57.87
2018-01-06T13:14:39.905Z,53.37
2018-01-06T13:17:08.290Z,63.30
2018-01-06T13:19:35.890Z,49.33
2018-01-06T13:22:03.505Z,54.10
2018-01-06T13:24:31.878Z,44.30
2018-01-06T13:26:59.462Z,52.37
2018-01-06T13:29:28.460Z,43.93
2018-01-06T13:31:56.025Z,43.10
2018-01-06T13:34:23.568Z,39.70
2018-01-06T13:36:51.957Z,41.53
2018-01-06T13:39:19.515Z,45.10
2018-01-06T13:41:47.117Z,46.20
2018-01-06T13:44:14.712Z,46.50
2018-01-06T13:46:42.329Z,42.47
2018-01-06T13:49:09.977Z,45.43
2018-01-06T13:51:37.535Z,42.47
2018-01-06T13:54:05.086Z,41.57
2018-01-06T13:56:32.709Z,36.03
2018-01-06T13:59:00.306Z,43.27
2018-01-06T14:01:27.836Z,39.13
2018-01-06T14:03:55.688Z,44.97
2018-01-06T14:06:23.308Z,42.63
2018-01-06T14:08:50.884Z,38.43
2018-01-06T14:11:18.508Z,39.23
2018-01-06T14:13:46.897Z,46.17
2018-01-06T14:16:14.469Z,49.57
2018-01-06T14:18:42.053Z,42.53
2018-01-06T14:21:09.651Z,35.50
2018-01-06T14:23:37.380Z,46.10
2018-01-06T14:26:04.945Z,40.73
2018-01-06T14:28:32.569Z,44.90
2018-01-06T14:31:00.193Z,45.50
2018-01-06T14:33:28.516Z,48.03
2018-01-06T14:35:56.095Z,41.87
2018-01-06T14:38:23.683Z,51.77
2018-01-06T14:40:51.289Z,43.67
2018-01-06T14:43:18.838Z,41.47
2018-01-06T14:45:46.414Z,43.60
2018-01-06T14:48:14.070Z,47.40
2018-01-06T14:50:42.090Z,48.47
2018-01-06T14:53:10.004Z,46.37
2018-01-06T14:55:38.687Z,45.73
2018-01-06T14:58:07.172Z,51.90
2018-01-06T15:00:34.707Z,56.03
2018-01-06T15:03:02.362Z,51.23
2018-01-06T15:05:30.689Z,53.60
2018-01-06T15:07:58.217Z,54.17
2018-01-06T15:10:26.565Z,58.30
2018-01-06T15:12:54.098Z,51.70
2018-01-06T15:15:22.261Z,60.93
2018-01-06T15:17:49.863Z,65.47
2018-01-06T15:20:17.425Z,60.13
2018-01-06T15:22:45.020Z,67.40
2018-01-06T15:25:12.596Z,63.23
2018-01-06T15:27:40.148Z,70.97
2018-01-06T15:30:08.344Z,65.93
2018-01-06T15:32:35.897Z,74.17
2018-01-06T15:35:04.230Z,72.90
2018-01-06T15:37:32.563Z,75.37
2018-01-06T15:40:00.165Z,78.50
2018-01-06T15:42:28.506Z,79.73
2018-01-06T15:44:56.138Z,73.87
2018-01-06T15:47:23.726Z,70.93
2018-01-06T15:49:51.279Z,83.90
2018-01-06T15:52:18.887Z,95.23
2018-01-06T15:54:47.276Z,82.03
2018-01-06T15:57:14.810Z,90.20
2018-01-06T15:59:42.415Z,89.20
2018-01-06T16:02:09.964Z,80.40
2018-01-06T16:04:37.606Z,76.03
2018-01-06T16:07:05.178Z,90.40
2018-01-06T16:09:33.469Z,80.50
2018-01-06T16:12:01.079Z,85.80
2018-01-06T16:14:29.239Z,85.40
2018-01-06T16:16:56.917Z,95.40
2018-01-06T16:19:24.480Z,89.23
2018-01-06T16:21:53.332Z,86.10
2018-01-06T16:24:22.514Z,98.60
2018-01-06T16:26:50.625Z,92.27
2018-01-06T16:29:18.215Z,88.40
2018-01-06T16:31:45.811Z,97.17
2018-01-06T16:34:13.353Z,90.63
2018-01-06T16:36:40.913Z,99.87
2018-01-06T16:39:09.340Z,91.20
2018-01-06T16:41:36.943Z,92.10
2018-01-06T16:44:05.300Z,91.63
2018-01-06T16:46:32.849Z,101.20
2018-01-06T16:49:00.411Z,100.43
2018-01-06T16:51:27.956Z,101.37
2018-01-06T16:53:55.624Z,105.20
2018-01-06T16:56:23.180Z,83.70
2018-01-06T16:58:51.497Z,85.90
2018-01-06T17:01:19.826Z,86.07
2018-01-06T17:03:47.388Z,85.90
2018-01-06T17:06:14.982Z,91.90
2018-01-06T17:08:42.554Z,76.90
2018-01-06T17:11:10.892Z,73.53
2018-01-06T17:13:38.434Z,72.13
2018-01-06T17:16:06.013Z,70.73
2018-01-06T17:18:34.470Z,73.93
2018-01-06T17:21:02.084Z,62.30
2018-01-06T17:23:29.656Z,69.70
2018-01-06T17:25:57.289Z,65.40
2018-01-06T17:28:24.888Z,79.87
2018-01-06T17:30:53.211Z,73.20
2018-01-06T17:33:21.583Z,77.27
2018-01-06T17:35:49.184Z,85.33
2018-01-06T17:38:16.834Z,81.37
2018-01-06T17:40:44.391Z,87.03
2018-01-06T18:00:28.214Z,81.63
2018-01-06T18:02:56.340Z,69.57
2018-01-06T18:05:24.016Z,67.27
2018-01-06T18:07:51.636Z,64.27
2018-01-06T18:10:19.250Z,70.73
2018-01-06T18:12:46.809Z,75.47
2018-01-06T18:15:14.984Z,74.57
2018-01-06T18:17:42.591Z,71.83
2018-01-06T18:20:10.958Z,74.57
2018-01-06T18:22:38.543Z,67.47
2018-01-06T18:25:07.006Z,76.80
2018-01-06T18:27:34.605Z,70.30
2018-01-06T18:30:02.179Z,78.80
2018-01-06T18:32:30.519Z,68.77
2018-01-06T18:34:58.082Z,67.47
2018-01-06T18:37:25.727Z,73.00
2018-01-06T18:39:53.326Z,76.30
2018-01-06T18:42:21.366Z,72.93
2018-01-06T18:44:48.927Z,77.23
2018-01-06T18:47:16.455Z,72.30
2018-01-06T18:49:44.048Z,75.40
2018-01-06T18:52:11.644Z,70.50
2018-01-06T18:54:39.968Z,85.93
2018-01-06T18:57:08.314Z,74.10
2018-01-06T18:59:35.957Z,75.17
2018-01-06T19:02:03.509Z,77.10
2018-01-06T19:04:31.852Z,80.60
2018-01-06T19:07:00.062Z,76.87
2018-01-06T19:09:27.659Z,83.80
2018-01-06T19:11:55.874Z,78.50
2018-01-06T19:14:23.475Z,75.40
2018-01-06T19:16:51.171Z,84.97
2018-01-06T19:19:18.934Z,84.17
2018-01-06T19:21:46.529Z,81.03
2018-01-06T19:24:14.156Z,91.73
2018-01-06T19:26:41.734Z,83.90
2018-01-06T19:29:09.504Z,89.20
2018-01-06T19:31:37.105Z,93.97
2018-01-06T19:34:04.672Z,86.97
2018-01-06T19:36:32.200Z,87.63
2018-01-06T19:38:59.779Z,98.90
2018-01-06T19:41:27.339Z,98.43
2018-01-06T19:43:55.682Z,107.20
2018-01-06T19:46:23.292Z,96.47
2018-01-06T19:48:50.872Z,104.67
2018-01-06T19:51:19.314Z,111.50
2018-01-06T19:53:46.908Z,91.60
2018-01-06T19:56:14.460Z,96.10
2018-01-06T19:58:42.103Z,94.07
2018-01-06T20:01:10.431Z,90.90
2018-01-06T20:03:37.978Z,97.17
2018-01-06T20:06:05.570Z,88.43
2018-01-06T20:08:33.118Z,76.60
2018-01-06T20:11:00.800Z,86.50
2018-01-06T20:13:28.339Z,102.70
2018-01-06T20:15:55.957Z,77.07
2018-01-06T20:18:24.588Z,77.37
2018-01-06T20:20:52.148Z,83.00
2018-01-06T20:23:19.742Z,77.67
2018-01-06T20:25:47.324Z,78.77
2018-01-06T20:28:15.197Z,75.27
2018-01-06T20:30:42.768Z,78.27
2018-01-06T20:33:10.359Z,77.27
2018-01-06T20:35:38.433Z,65.80
2018-01-06T20:38:06.051Z,77.10
2018-01-06T20:40:33.761Z,74.67
2018-01-06T20:43:01.442Z,80.93
2018-01-06T20:45:29.177Z,74.83
2018-01-06T20:47:56.844Z,79.27
2018-01-06T20:50:24.459Z,73.00
2018-01-06T20:52:52.050Z,70.90
2018-01-06T20:55:19.861Z,70.10
2018-01-06T20:57:47.665Z,73.33
2018-01-06T21:00:15.999Z,66.70
2018-01-06T21:02:44.485Z,62.00
2018-01-06T21:05:13.025Z,61.80
2018-01-06T21:07:40.640Z,56.00
2018-01-06T21:10:08.985Z,59.83
2018-01-06T21:12:36.579Z,57.00
2018-01-06T21:15:05.072Z,58.20
2018-01-06T21:17:33.588Z,49.63
2018-01-06T21:20:01.332Z,56.63
2018-01-06T21:22:28.957Z,57.13
2018-01-06T21:24:56.569Z,49.20
2018-01-06T21:27:24.383Z,53.83
2018-01-06T21:29:51.951Z,53.53
2018-01-06T21:32:19.573Z,46.77
2018-01-06T21:34:47.124Z,47.20
2018-01-06T21:37:14.706Z,50.37
2018-01-06T21:39:42.243Z,47.43
2018-01-06T21:42:09.894Z,44.03
2018-01-06T21:44:37.476Z,49.60
2018-01-06T21:47:05.127Z,47.77
2018-01-06T21:49:32.740Z,45.60
2018-01-06T21:52:01.045Z,46.83
2018-01-06T21:54:28.628Z,46.30
2018-01-06T21:56:56.178Z,45.00
2018-01-06T21:59:23.751Z,44.93
2018-01-06T22:01:51.355Z,39.67
2018-01-06T22:04:19.735Z,46.67
2018-01-06T22:06:47.302Z,43.47
2018-01-06T22:09:15.617Z,38.93
2018-01-06T22:11:43.231Z,41.37
2018-01-06T22:14:10.802Z,42.20
2018-01-06T22:16:38.431Z,38.50
2018-01-06T22:19:05.967Z,36.43
2018-01-06T22:21:33.527Z,36.53
2018-01-06T22:24:01.066Z,34.93
2018-01-06T22:26:28.590Z,36.00
2018-01-06T22:28:56.179Z,29.50
2018-01-06T22:31:24.224Z,30.00
2018-01-06T22:33:51.743Z,37.83
2018-01-06T22:36:19.318Z,37.67
2018-01-06T22:38:46.895Z,31.20
2018-01-06T22:41:15.247Z,32.53
2018-01-06T22:43:42.781Z,28.57
2018-01-06T22:46:10.349Z,26.87
2018-01-06T22:48:37.968Z,32.00
2018-01-06T22:51:06.591Z,26.90
2018-01-06T22:53:34.257Z,30.70
2018-01-06T22:56:01.842Z,30.10
2018-01-06T22:58:29.413Z,26.30
2018-01-06T23:00:57.149Z,25.40
2018-01-06T23:03:24.702Z,29.50
2018-01-06T23:05:52.316Z,27.60
2018-01-06T23:08:20.636Z,33.50
2018-01-06T23:10:48.245Z,29.80
2018-01-06T23:13:15.895Z,27.80
2018-01-06T23:15:43.494Z,25.73
2018-01-06T23:18:11.065Z,28.23
2018-01-06T23:20:38.712Z,25.87
2018-01-06T23:23:07.111Z,29.27
2018-01-06T23:25:34.669Z,35.13
2018-01-06T23:28:03.588Z,32.10
2018-01-06T23:30:33.496Z,40.57
2018-01-06T23:33:02.633Z,33.27
2018-01-06T23:35:30.251Z,34.57
2018-01-06T23:37:57.838Z,36.37
2018-01-06T23:40:25.524Z,32.00
2018-01-06T23:42:55.537Z,32.90
2018-01-06T23:45:23.476Z,33.63
2018-01-06T23:47:55.146Z,34.90
2018-01-06T23:50:24.388Z,32.70
2018-01-06T23:52:53.695Z,40.43
2018-01-06T23:55:23.358Z,28.77
2018-01-06T23:57:52.944Z,40.80
